sensor_id;sensor_type;location;lat;lon;timestamp;temperature;humidity
674;DHT22;319;48.764;9.174;2023-10-31T00:01:09;13.40;99.90
674;DHT22;319;48.764;9.174;2023-10-31T00:03:36;13.40;99.90
674;DHT22;319;48.764;9.174;2023-10-31T00:06:07;13.40;99.90
674;DHT22;319;48.764;9.174;2023-10-31T00:08:34;13.40;99.90
674;DHT22;319;48.764;9.174;2023-10-31T00:11:00;13.50;99.90
674;DHT22;319;48.764;9.174;2023-10-31T00:13:27;13.50;99.90
674;DHT22;319;48.764;9.174;2023-10-31T00:15:54;13.50;99.90
674;DHT22;319;48.764;9.174;2023-10-31T00:18:21;13.50;99.90
674;DHT22;319;48.764;9.174;2023-10-31T00:20:47;13.40;99.90
674;DHT22;319;48.764;9.174;2023-10-31T00:23:16;13.40;99.90
674;DHT22;319;48.764;9.174;2023-10-31T00:25:43;13.40;99.90
674;DHT22;319;48.764;9.174;2023-10-31T00:28:09;13.30;99.90
674;DHT22;319;48.764;9.174;2023-10-31T00:30:36;13.30;99.90
674;DHT22;319;48.764;9.174;2023-10-31T00:33:03;13.30;99.90
674;DHT22;319;48.764;9.174;2023-10-31T00:35:30;13.30;99.90
674;DHT22;319;48.764;9.174;2023-10-31T00:37:57;13.30;99.90
674;DHT22;319;48.764;9.174;2023-10-31T00:40:26;13.30;99.90
674;DHT22;319;48.764;9.174;2023-10-31T00:42:52;13.30;99.90
674;DHT22;319;48.764;9.174;2023-10-31T00:45:21;13.40;99.90
674;DHT22;319;48.764;9.174;2023-10-31T00:47:48;13.40;99.90
674;DHT22;319;48.764;9.174;2023-10-31T00:50:15;13.50;99.90
674;DHT22;319;48.764;9.174;2023-10-31T00:52:41;13.50;99.90
674;DHT22;319;48.764;9.174;2023-10-31T00:55:08;13.50;99.90
674;DHT22;319;48.764;9.174;2023-10-31T00:57:37;13.50;99.90
674;DHT22;319;48.764;9.174;2023-10-31T01:00:05;13.50;99.90
674;DHT22;319;48.764;9.174;2023-10-31T01:02:34;13.50;99.90
674;DHT22;319;48.764;9.174;2023-10-31T01:05:00;13.40;99.90
674;DHT22;319;48.764;9.174;2023-10-31T01:07:27;13.40;99.90
674;DHT22;319;48.764;9.174;2023-10-31T01:09:54;13.40;99.90
674;DHT22;319;48.764;9.174;2023-10-31T01:12:21;13.40;99.90
674;DHT22;319;48.764;9.174;2023-10-31T01:14:49;13.40;99.90
674;DHT22;319;48.764;9.174;2023-10-31T01:17:15;13.30;99.90
674;DHT22;319;48.764;9.174;2023-10-31T01:19:42;13.30;99.90
674;DHT22;319;48.764;9.174;2023-10-31T01:22:09;13.20;99.90
674;DHT22;319;48.764;9.174;2023-10-31T01:24:35;13.20;99.90
674;DHT22;319;48.764;9.174;2023-10-31T01:27:02;13.20;99.90
674;DHT22;319;48.764;9.174;2023-10-31T01:29:29;13.10;99.90
674;DHT22;319;48.764;9.174;2023-10-31T01:31:57;13.10;99.90
674;DHT22;319;48.764;9.174;2023-10-31T01:34:24;13.00;99.90
674;DHT22;319;48.764;9.174;2023-10-31T01:36:51;12.90;99.90
674;DHT22;319;48.764;9.174;2023-10-31T01:39:18;12.90;99.90
674;DHT22;319;48.764;9.174;2023-10-31T01:41:45;12.80;99.90
674;DHT22;319;48.764;9.174;2023-10-31T01:44:12;12.80;99.90
674;DHT22;319;48.764;9.174;2023-10-31T01:49:14;12.70;99.90
674;DHT22;319;48.764;9.174;2023-10-31T01:51:41;12.70;99.90
674;DHT22;319;48.764;9.174;2023-10-31T01:54:09;12.70;99.90
674;DHT22;319;48.764;9.174;2023-10-31T01:56:37;12.70;99.90
674;DHT22;319;48.764;9.174;2023-10-31T01:59:05;12.80;99.90
674;DHT22;319;48.764;9.174;2023-10-31T02:01:32;12.80;99.90
674;DHT22;319;48.764;9.174;2023-10-31T02:03:59;12.80;99.90
674;DHT22;319;48.764;9.174;2023-10-31T02:06:29;12.80;99.90
674;DHT22;319;48.764;9.174;2023-10-31T02:08:56;12.80;99.90
674;DHT22;319;48.764;9.174;2023-10-31T02:11:22;12.80;99.90
674;DHT22;319;48.764;9.174;2023-10-31T02:13:49;12.80;99.90
674;DHT22;319;48.764;9.174;2023-10-31T02:16:16;12.80;99.90
674;DHT22;319;48.764;9.174;2023-10-31T02:18:43;12.80;99.90
674;DHT22;319;48.764;9.174;2023-10-31T02:21:09;12.90;99.90
674;DHT22;319;48.764;9.174;2023-10-31T02:23:38;12.90;99.90
674;DHT22;319;48.764;9.174;2023-10-31T02:26:04;12.90;99.90
674;DHT22;319;48.764;9.174;2023-10-31T02:28:31;12.90;99.90
674;DHT22;319;48.764;9.174;2023-10-31T02:30:58;12.90;99.90
674;DHT22;319;48.764;9.174;2023-10-31T02:33:25;12.80;99.90
674;DHT22;319;48.764;9.174;2023-10-31T02:35:52;12.80;99.90
674;DHT22;319;48.764;9.174;2023-10-31T02:38:19;12.80;99.90
674;DHT22;319;48.764;9.174;2023-10-31T02:40:47;12.80;99.90
674;DHT22;319;48.764;9.174;2023-10-31T02:43:14;12.80;99.90
674;DHT22;319;48.764;9.174;2023-10-31T02:45:40;12.80;99.90
674;DHT22;319;48.764;9.174;2023-10-31T02:48:08;12.80;99.90
674;DHT22;319;48.764;9.174;2023-10-31T02:50:35;12.80;99.90
674;DHT22;319;48.764;9.174;2023-10-31T02:53:05;12.80;99.90
674;DHT22;319;48.764;9.174;2023-10-31T02:55:31;12.80;99.90
674;DHT22;319;48.764;9.174;2023-10-31T02:58:00;12.70;99.90
674;DHT22;319;48.764;9.174;2023-10-31T03:00:26;12.70;99.90
674;DHT22;319;48.764;9.174;2023-10-31T03:02:53;12.80;99.90
674;DHT22;319;48.764;9.174;2023-10-31T03:05:20;12.70;99.90
674;DHT22;319;48.764;9.174;2023-10-31T03:07:47;12.70;99.90
674;DHT22;319;48.764;9.174;2023-10-31T03:10:15;12.70;99.90
674;DHT22;319;48.764;9.174;2023-10-31T03:12:42;12.70;99.90
674;DHT22;319;48.764;9.174;2023-10-31T03:15:10;12.80;99.90
674;DHT22;319;48.764;9.174;2023-10-31T03:17:37;12.80;99.90
674;DHT22;319;48.764;9.174;2023-10-31T03:20:05;12.80;99.90
674;DHT22;319;48.764;9.174;2023-10-31T03:22:31;12.80;99.90
674;DHT22;319;48.764;9.174;2023-10-31T03:24:58;12.70;99.90
674;DHT22;319;48.764;9.174;2023-10-31T03:27:25;12.70;99.90
674;DHT22;319;48.764;9.174;2023-10-31T03:29:52;12.60;99.90
674;DHT22;319;48.764;9.174;2023-10-31T03:32:20;12.70;99.90
674;DHT22;319;48.764;9.174;2023-10-31T03:34:46;12.60;99.90
674;DHT22;319;48.764;9.174;2023-10-31T03:37:13;12.70;99.90
674;DHT22;319;48.764;9.174;2023-10-31T03:39:40;12.80;99.90
674;DHT22;319;48.764;9.174;2023-10-31T03:42:07;12.80;99.90
674;DHT22;319;48.764;9.174;2023-10-31T03:44:34;12.80;99.90
674;DHT22;319;48.764;9.174;2023-10-31T03:47:00;12.90;99.90
674;DHT22;319;48.764;9.174;2023-10-31T03:49:29;12.90;99.90
674;DHT22;319;48.764;9.174;2023-10-31T03:51:55;12.90;99.90
674;DHT22;319;48.764;9.174;2023-10-31T03:54:22;12.90;99.90
674;DHT22;319;48.764;9.174;2023-10-31T03:56:49;12.90;99.90
674;DHT22;319;48.764;9.174;2023-10-31T03:59:16;12.90;99.90
674;DHT22;319;48.764;9.174;2023-10-31T04:01:43;12.80;99.90
674;DHT22;319;48.764;9.174;2023-10-31T04:04:09;12.90;99.90
674;DHT22;319;48.764;9.174;2023-10-31T04:06:37;12.90;99.90
674;DHT22;319;48.764;9.174;2023-10-31T04:09:06;12.90;99.90
674;DHT22;319;48.764;9.174;2023-10-31T04:11:33;12.90;99.90
674;DHT22;319;48.764;9.174;2023-10-31T04:14:00;12.90;99.90
674;DHT22;319;48.764;9.174;2023-10-31T04:16:26;12.80;99.90
674;DHT22;319;48.764;9.174;2023-10-31T04:18:53;12.80;99.90
674;DHT22;319;48.764;9.174;2023-10-31T04:21:20;12.80;99.90
674;DHT22;319;48.764;9.174;2023-10-31T04:23:48;12.80;99.90
674;DHT22;319;48.764;9.174;2023-10-31T04:26:15;12.90;99.90
674;DHT22;319;48.764;9.174;2023-10-31T04:28:42;12.90;99.90
674;DHT22;319;48.764;9.174;2023-10-31T04:31:09;12.80;99.90
674;DHT22;319;48.764;9.174;2023-10-31T04:33:36;12.80;99.90
674;DHT22;319;48.764;9.174;2023-10-31T04:36:03;12.70;99.90
674;DHT22;319;48.764;9.174;2023-10-31T04:38:30;12.70;99.90
674;DHT22;319;48.764;9.174;2023-10-31T04:40:58;12.60;99.90
674;DHT22;319;48.764;9.174;2023-10-31T04:43:25;12.50;99.90
674;DHT22;319;48.764;9.174;2023-10-31T04:45:52;12.40;99.90
674;DHT22;319;48.764;9.174;2023-10-31T04:48:18;12.30;99.90
674;DHT22;319;48.764;9.174;2023-10-31T04:50:45;12.30;99.90
674;DHT22;319;48.764;9.174;2023-10-31T04:53:12;12.20;99.90
674;DHT22;319;48.764;9.174;2023-10-31T04:55:39;12.30;99.90
674;DHT22;319;48.764;9.174;2023-10-31T04:58:07;12.30;99.90
674;DHT22;319;48.764;9.174;2023-10-31T05:00:34;12.30;99.90
674;DHT22;319;48.764;9.174;2023-10-31T05:03:00;12.40;99.90
674;DHT22;319;48.764;9.174;2023-10-31T05:05:28;12.40;99.90
674;DHT22;319;48.764;9.174;2023-10-31T05:07:55;12.40;99.90
674;DHT22;319;48.764;9.174;2023-10-31T05:10:21;12.30;99.90
674;DHT22;319;48.764;9.174;2023-10-31T05:12:48;12.30;99.90
674;DHT22;319;48.764;9.174;2023-10-31T05:15:17;12.30;99.90
674;DHT22;319;48.764;9.174;2023-10-31T05:17:44;12.40;99.90
674;DHT22;319;48.764;9.174;2023-10-31T05:20:11;12.40;99.90
674;DHT22;319;48.764;9.174;2023-10-31T05:22:37;12.40;99.90
674;DHT22;319;48.764;9.174;2023-10-31T05:25:05;12.40;99.90
674;DHT22;319;48.764;9.174;2023-10-31T05:27:31;12.40;99.90
674;DHT22;319;48.764;9.174;2023-10-31T05:29:58;12.40;99.90
674;DHT22;319;48.764;9.174;2023-10-31T05:32:26;12.40;99.90
674;DHT22;319;48.764;9.174;2023-10-31T05:34:53;12.30;99.90
674;DHT22;319;48.764;9.174;2023-10-31T05:37:20;12.30;99.90
674;DHT22;319;48.764;9.174;2023-10-31T05:39:46;12.30;99.90
674;DHT22;319;48.764;9.174;2023-10-31T05:42:13;12.30;99.90
674;DHT22;319;48.764;9.174;2023-10-31T05:44:40;12.30;99.90
674;DHT22;319;48.764;9.174;2023-10-31T05:47:07;12.30;99.90
674;DHT22;319;48.764;9.174;2023-10-31T05:49:35;12.20;99.90
674;DHT22;319;48.764;9.174;2023-10-31T05:52:02;12.20;99.90
674;DHT22;319;48.764;9.174;2023-10-31T05:54:29;12.20;99.90
674;DHT22;319;48.764;9.174;2023-10-31T05:56:55;12.20;99.90
674;DHT22;319;48.764;9.174;2023-10-31T05:59:22;12.10;99.90
674;DHT22;319;48.764;9.174;2023-10-31T06:01:49;12.00;99.90
674;DHT22;319;48.764;9.174;2023-10-31T06:04:16;12.00;99.90
674;DHT22;319;48.764;9.174;2023-10-31T06:06:44;12.10;99.90
674;DHT22;319;48.764;9.174;2023-10-31T06:09:10;12.10;99.90
674;DHT22;319;48.764;9.174;2023-10-31T06:11:40;12.10;99.90
674;DHT22;319;48.764;9.174;2023-10-31T06:14:08;12.10;99.90
674;DHT22;319;48.764;9.174;2023-10-31T06:16:39;12.10;99.90
674;DHT22;319;48.764;9.174;2023-10-31T06:19:10;12.10;99.90
674;DHT22;319;48.764;9.174;2023-10-31T06:21:37;12.20;99.90
674;DHT22;319;48.764;9.174;2023-10-31T06:24:05;12.20;99.90
674;DHT22;319;48.764;9.174;2023-10-31T06:26:33;12.20;99.90
674;DHT22;319;48.764;9.174;2023-10-31T06:29:00;12.30;99.90
674;DHT22;319;48.764;9.174;2023-10-31T06:31:26;12.30;99.90
674;DHT22;319;48.764;9.174;2023-10-31T06:33:53;12.30;99.90
674;DHT22;319;48.764;9.174;2023-10-31T06:36:20;12.30;99.90
674;DHT22;319;48.764;9.174;2023-10-31T06:38:47;12.20;99.90
674;DHT22;319;48.764;9.174;2023-10-31T06:41:15;12.20;99.90
674;DHT22;319;48.764;9.174;2023-10-31T06:43:41;12.20;99.90
674;DHT22;319;48.764;9.174;2023-10-31T06:46:08;12.10;99.90
674;DHT22;319;48.764;9.174;2023-10-31T06:48:35;12.10;99.90
674;DHT22;319;48.764;9.174;2023-10-31T06:51:02;12.10;99.90
674;DHT22;319;48.764;9.174;2023-10-31T06:53:29;12.10;99.90
674;DHT22;319;48.764;9.174;2023-10-31T06:55:55;12.10;99.90
674;DHT22;319;48.764;9.174;2023-10-31T06:58:24;12.20;99.90
674;DHT22;319;48.764;9.174;2023-10-31T07:00:50;12.20;99.90
674;DHT22;319;48.764;9.174;2023-10-31T07:03:17;12.20;99.90
674;DHT22;319;48.764;9.174;2023-10-31T07:05:44;12.20;99.90
674;DHT22;319;48.764;9.174;2023-10-31T07:08:10;12.30;99.90
674;DHT22;319;48.764;9.174;2023-10-31T07:10:37;12.30;99.90
674;DHT22;319;48.764;9.174;2023-10-31T07:13:07;12.20;99.90
674;DHT22;319;48.764;9.174;2023-10-31T07:15:35;12.10;99.90
674;DHT22;319;48.764;9.174;2023-10-31T07:18:04;12.00;99.90
674;DHT22;319;48.764;9.174;2023-10-31T07:20:32;12.00;99.90
674;DHT22;319;48.764;9.174;2023-10-31T07:22:59;11.90;99.90
674;DHT22;319;48.764;9.174;2023-10-31T07:25:26;12.00;99.90
674;DHT22;319;48.764;9.174;2023-10-31T07:27:53;12.00;99.90
674;DHT22;319;48.764;9.174;2023-10-31T07:30:19;12.00;99.90
674;DHT22;319;48.764;9.174;2023-10-31T07:32:47;12.00;99.90
674;DHT22;319;48.764;9.174;2023-10-31T07:35:14;12.10;99.90
674;DHT22;319;48.764;9.174;2023-10-31T07:37:41;12.10;99.90
674;DHT22;319;48.764;9.174;2023-10-31T07:40:09;12.10;99.90
674;DHT22;319;48.764;9.174;2023-10-31T07:42:36;12.20;99.90
674;DHT22;319;48.764;9.174;2023-10-31T07:45:03;12.30;99.90
674;DHT22;319;48.764;9.174;2023-10-31T07:47:30;12.40;99.90
674;DHT22;319;48.764;9.174;2023-10-31T07:49:58;12.50;99.90
674;DHT22;319;48.764;9.174;2023-10-31T07:52:28;12.60;99.90
674;DHT22;319;48.764;9.174;2023-10-31T07:54:55;12.70;99.90
674;DHT22;319;48.764;9.174;2023-10-31T07:57:21;12.70;99.90
674;DHT22;319;48.764;9.174;2023-10-31T07:59:48;12.80;99.90
674;DHT22;319;48.764;9.174;2023-10-31T08:02:16;12.80;99.90
674;DHT22;319;48.764;9.174;2023-10-31T08:04:43;12.70;99.90
674;DHT22;319;48.764;9.174;2023-10-31T08:07:11;12.70;99.90
674;DHT22;319;48.764;9.174;2023-10-31T08:09:40;12.90;99.90
674;DHT22;319;48.764;9.174;2023-10-31T08:12:07;13.00;99.90
674;DHT22;319;48.764;9.174;2023-10-31T08:14:34;13.00;99.90
674;DHT22;319;48.764;9.174;2023-10-31T08:17:01;13.20;99.90
674;DHT22;319;48.764;9.174;2023-10-31T08:19:27;13.20;99.90
674;DHT22;319;48.764;9.174;2023-10-31T08:21:54;13.40;99.90
674;DHT22;319;48.764;9.174;2023-10-31T08:24:22;13.50;99.90
674;DHT22;319;48.764;9.174;2023-10-31T08:26:49;13.60;99.90
674;DHT22;319;48.764;9.174;2023-10-31T08:29:16;13.80;99.90
674;DHT22;319;48.764;9.174;2023-10-31T08:31:42;13.90;99.90
674;DHT22;319;48.764;9.174;2023-10-31T08:34:09;13.90;99.90
674;DHT22;319;48.764;9.174;2023-10-31T08:36:36;14.10;99.90
674;DHT22;319;48.764;9.174;2023-10-31T08:39:04;14.20;99.90
674;DHT22;319;48.764;9.174;2023-10-31T08:41:32;14.30;99.90
674;DHT22;319;48.764;9.174;2023-10-31T08:43:59;14.50;99.90
674;DHT22;319;48.764;9.174;2023-10-31T08:46:27;14.70;99.90
674;DHT22;319;48.764;9.174;2023-10-31T08:48:53;14.70;99.90
674;DHT22;319;48.764;9.174;2023-10-31T08:51:20;14.60;99.90
674;DHT22;319;48.764;9.174;2023-10-31T08:53:48;14.60;99.90
674;DHT22;319;48.764;9.174;2023-10-31T08:56:15;14.60;99.90
674;DHT22;319;48.764;9.174;2023-10-31T08:58:43;14.60;99.90
674;DHT22;319;48.764;9.174;2023-10-31T09:01:10;14.80;99.90
674;DHT22;319;48.764;9.174;2023-10-31T09:03:36;14.90;99.90
674;DHT22;319;48.764;9.174;2023-10-31T09:06:04;14.90;99.70
674;DHT22;319;48.764;9.174;2023-10-31T09:08:31;14.90;99.60
674;DHT22;319;48.764;9.174;2023-10-31T09:10:59;15.00;99.30
674;DHT22;319;48.764;9.174;2023-10-31T09:13:27;15.10;99.30
674;DHT22;319;48.764;9.174;2023-10-31T09:15:55;15.10;99.40
674;DHT22;319;48.764;9.174;2023-10-31T09:18:22;15.20;99.10
674;DHT22;319;48.764;9.174;2023-10-31T09:20:48;15.20;99.00
674;DHT22;319;48.764;9.174;2023-10-31T09:23:15;15.20;99.00
674;DHT22;319;48.764;9.174;2023-10-31T09:25:42;15.30;98.80
674;DHT22;319;48.764;9.174;2023-10-31T09:28:09;15.40;98.60
674;DHT22;319;48.764;9.174;2023-10-31T09:30:36;15.50;98.50
674;DHT22;319;48.764;9.174;2023-10-31T09:33:04;15.60;98.10
674;DHT22;319;48.764;9.174;2023-10-31T09:35:31;15.70;98.00
674;DHT22;319;48.764;9.174;2023-10-31T09:37:58;15.70;97.90
674;DHT22;319;48.764;9.174;2023-10-31T09:40:24;15.70;97.80
674;DHT22;319;48.764;9.174;2023-10-31T09:42:51;15.80;97.80
674;DHT22;319;48.764;9.174;2023-10-31T09:45:18;15.60;97.50
674;DHT22;319;48.764;9.174;2023-10-31T09:47:45;15.60;97.80
674;DHT22;319;48.764;9.174;2023-10-31T09:50:13;15.60;97.60
674;DHT22;319;48.764;9.174;2023-10-31T09:52:40;15.70;97.80
674;DHT22;319;48.764;9.174;2023-10-31T09:55:08;15.60;97.90
674;DHT22;319;48.764;9.174;2023-10-31T09:57:35;15.60;97.70
674;DHT22;319;48.764;9.174;2023-10-31T10:00:01;15.60;97.70
674;DHT22;319;48.764;9.174;2023-10-31T10:02:28;15.40;97.90
674;DHT22;319;48.764;9.174;2023-10-31T10:04:55;15.50;98.00
674;DHT22;319;48.764;9.174;2023-10-31T10:07:24;15.50;98.00
674;DHT22;319;48.764;9.174;2023-10-31T10:09:51;15.60;98.00
674;DHT22;319;48.764;9.174;2023-10-31T10:12:17;15.50;98.00
674;DHT22;319;48.764;9.174;2023-10-31T10:14:45;15.50;98.10
674;DHT22;319;48.764;9.174;2023-10-31T10:17:16;15.50;98.20
674;DHT22;319;48.764;9.174;2023-10-31T10:19:43;15.40;98.20
674;DHT22;319;48.764;9.174;2023-10-31T10:22:10;15.50;98.40
674;DHT22;319;48.764;9.174;2023-10-31T10:24:41;15.50;98.40
674;DHT22;319;48.764;9.174;2023-10-31T10:27:08;15.40;98.50
674;DHT22;319;48.764;9.174;2023-10-31T10:29:35;15.30;98.90
674;DHT22;319;48.764;9.174;2023-10-31T10:32:05;15.40;99.00
674;DHT22;319;48.764;9.174;2023-10-31T10:34:34;15.50;99.00
674;DHT22;319;48.764;9.174;2023-10-31T10:37:05;15.70;98.80
674;DHT22;319;48.764;9.174;2023-10-31T10:39:47;15.90;98.40
674;DHT22;319;48.764;9.174;2023-10-31T10:42:31;16.00;98.00
674;DHT22;319;48.764;9.174;2023-10-31T10:45:02;16.00;97.70
674;DHT22;319;48.764;9.174;2023-10-31T10:47:30;16.10;97.80
674;DHT22;319;48.764;9.174;2023-10-31T10:49:59;16.20;97.60
674;DHT22;319;48.764;9.174;2023-10-31T10:52:30;16.10;97.30
674;DHT22;319;48.764;9.174;2023-10-31T10:55:06;16.20;97.30
674;DHT22;319;48.764;9.174;2023-10-31T10:57:41;16.00;97.30
674;DHT22;319;48.764;9.174;2023-10-31T11:00:10;15.90;97.70
674;DHT22;319;48.764;9.174;2023-10-31T11:02:40;15.90;98.10
674;DHT22;319;48.764;9.174;2023-10-31T11:05:08;15.90;98.20
674;DHT22;319;48.764;9.174;2023-10-31T11:07:36;15.80;98.30
674;DHT22;319;48.764;9.174;2023-10-31T11:10:06;16.00;98.50
674;DHT22;319;48.764;9.174;2023-10-31T11:12:33;16.10;98.30
674;DHT22;319;48.764;9.174;2023-10-31T11:15:02;16.20;97.90
674;DHT22;319;48.764;9.174;2023-10-31T11:17:31;16.30;97.70
674;DHT22;319;48.764;9.174;2023-10-31T11:20:00;16.40;97.70
674;DHT22;319;48.764;9.174;2023-10-31T11:22:37;16.50;97.50
674;DHT22;319;48.764;9.174;2023-10-31T11:25:07;16.40;97.30
674;DHT22;319;48.764;9.174;2023-10-31T11:27:34;16.50;97.60
674;DHT22;319;48.764;9.174;2023-10-31T11:30:05;16.50;97.20
674;DHT22;319;48.764;9.174;2023-10-31T11:32:32;16.60;97.40
674;DHT22;319;48.764;9.174;2023-10-31T11:34:59;16.70;97.20
674;DHT22;319;48.764;9.174;2023-10-31T11:37:32;16.70;97.00
674;DHT22;319;48.764;9.174;2023-10-31T11:40:20;16.70;96.90
674;DHT22;319;48.764;9.174;2023-10-31T11:42:49;16.70;96.90
674;DHT22;319;48.764;9.174;2023-10-31T11:45:26;16.60;97.10
674;DHT22;319;48.764;9.174;2023-10-31T11:47:52;16.60;97.10
674;DHT22;319;48.764;9.174;2023-10-31T11:50:19;16.60;96.80
674;DHT22;319;48.764;9.174;2023-10-31T11:53:01;16.50;97.20
674;DHT22;319;48.764;9.174;2023-10-31T11:55:32;16.60;97.30
674;DHT22;319;48.764;9.174;2023-10-31T11:58:15;16.70;97.10
674;DHT22;319;48.764;9.174;2023-10-31T12:00:42;16.70;96.90
674;DHT22;319;48.764;9.174;2023-10-31T12:03:11;16.80;96.90
674;DHT22;319;48.764;9.174;2023-10-31T12:05:37;16.90;96.80
674;DHT22;319;48.764;9.174;2023-10-31T12:08:04;16.80;96.70
674;DHT22;319;48.764;9.174;2023-10-31T12:10:33;16.70;97.40
674;DHT22;319;48.764;9.174;2023-10-31T12:12:59;16.60;97.10
674;DHT22;319;48.764;9.174;2023-10-31T12:15:26;16.60;97.70
674;DHT22;319;48.764;9.174;2023-10-31T12:17:57;16.50;97.60
674;DHT22;319;48.764;9.174;2023-10-31T12:20:25;16.40;97.60
674;DHT22;319;48.764;9.174;2023-10-31T12:23:02;16.40;98.00
674;DHT22;319;48.764;9.174;2023-10-31T12:25:29;16.30;98.20
674;DHT22;319;48.764;9.174;2023-10-31T12:27:59;16.20;98.80
674;DHT22;319;48.764;9.174;2023-10-31T12:30:26;15.80;98.80
674;DHT22;319;48.764;9.174;2023-10-31T12:32:54;15.60;99.90
674;DHT22;319;48.764;9.174;2023-10-31T12:35:22;15.40;99.90
674;DHT22;319;48.764;9.174;2023-10-31T12:37:55;15.20;99.90
674;DHT22;319;48.764;9.174;2023-10-31T12:40:25;15.00;99.90
674;DHT22;319;48.764;9.174;2023-10-31T12:42:52;14.90;99.90
674;DHT22;319;48.764;9.174;2023-10-31T12:45:21;14.90;99.90
674;DHT22;319;48.764;9.174;2023-10-31T12:48:00;14.90;99.90
674;DHT22;319;48.764;9.174;2023-10-31T12:50:28;14.80;99.90
674;DHT22;319;48.764;9.174;2023-10-31T12:52:55;14.80;99.90
674;DHT22;319;48.764;9.174;2023-10-31T12:55:25;14.80;99.90
674;DHT22;319;48.764;9.174;2023-10-31T12:57:52;14.80;99.90
674;DHT22;319;48.764;9.174;2023-10-31T13:00:22;14.70;99.90
674;DHT22;319;48.764;9.174;2023-10-31T13:02:58;14.70;99.90
674;DHT22;319;48.764;9.174;2023-10-31T13:05:26;14.80;99.90
674;DHT22;319;48.764;9.174;2023-10-31T13:07:53;14.70;99.90
674;DHT22;319;48.764;9.174;2023-10-31T13:10:22;14.80;99.90
674;DHT22;319;48.764;9.174;2023-10-31T13:12:50;14.70;99.90
674;DHT22;319;48.764;9.174;2023-10-31T13:15:18;14.80;99.90
674;DHT22;319;48.764;9.174;2023-10-31T13:17:46;14.80;99.90
674;DHT22;319;48.764;9.174;2023-10-31T13:20:15;14.80;99.90
674;DHT22;319;48.764;9.174;2023-10-31T13:22:42;14.80;99.90
674;DHT22;319;48.764;9.174;2023-10-31T13:25:11;14.80;99.90
674;DHT22;319;48.764;9.174;2023-10-31T13:27:39;14.90;99.90
674;DHT22;319;48.764;9.174;2023-10-31T13:30:08;14.90;99.90
674;DHT22;319;48.764;9.174;2023-10-31T13:32:36;14.90;99.90
674;DHT22;319;48.764;9.174;2023-10-31T13:35:04;15.00;99.90
674;DHT22;319;48.764;9.174;2023-10-31T13:37:31;15.10;99.90
674;DHT22;319;48.764;9.174;2023-10-31T13:40:00;15.10;99.90
674;DHT22;319;48.764;9.174;2023-10-31T13:42:27;15.20;99.90
674;DHT22;319;48.764;9.174;2023-10-31T13:44:54;15.20;99.90
674;DHT22;319;48.764;9.174;2023-10-31T13:47:21;15.30;99.90
674;DHT22;319;48.764;9.174;2023-10-31T13:49:48;15.40;99.90
674;DHT22;319;48.764;9.174;2023-10-31T13:52:16;15.50;99.90
674;DHT22;319;48.764;9.174;2023-10-31T13:54:43;15.50;99.90
674;DHT22;319;48.764;9.174;2023-10-31T13:57:10;15.60;99.90
674;DHT22;319;48.764;9.174;2023-10-31T13:59:36;15.60;99.90
674;DHT22;319;48.764;9.174;2023-10-31T14:02:03;15.80;99.90
674;DHT22;319;48.764;9.174;2023-10-31T14:04:30;15.90;99.90
674;DHT22;319;48.764;9.174;2023-10-31T14:06:57;16.00;99.90
674;DHT22;319;48.764;9.174;2023-10-31T14:09:26;16.10;99.90
674;DHT22;319;48.764;9.174;2023-10-31T14:11:52;16.20;99.90
674;DHT22;319;48.764;9.174;2023-10-31T14:14:19;16.10;99.90
674;DHT22;319;48.764;9.174;2023-10-31T14:16:47;16.10;99.90
674;DHT22;319;48.764;9.174;2023-10-31T14:19:14;16.10;99.90
674;DHT22;319;48.764;9.174;2023-10-31T14:21:42;16.20;99.90
674;DHT22;319;48.764;9.174;2023-10-31T14:24:09;16.20;99.90
674;DHT22;319;48.764;9.174;2023-10-31T14:26:37;16.20;99.90
674;DHT22;319;48.764;9.174;2023-10-31T14:29:05;16.30;99.90
674;DHT22;319;48.764;9.174;2023-10-31T14:31:37;16.20;99.90
674;DHT22;319;48.764;9.174;2023-10-31T14:34:04;16.30;99.90
674;DHT22;319;48.764;9.174;2023-10-31T14:36:31;16.10;99.90
674;DHT22;319;48.764;9.174;2023-10-31T14:38:58;16.00;99.90
674;DHT22;319;48.764;9.174;2023-10-31T14:41:25;16.10;99.90
674;DHT22;319;48.764;9.174;2023-10-31T14:43:53;16.20;99.90
674;DHT22;319;48.764;9.174;2023-10-31T14:46:19;16.30;99.90
674;DHT22;319;48.764;9.174;2023-10-31T14:48:46;16.40;99.90
674;DHT22;319;48.764;9.174;2023-10-31T14:51:13;16.40;99.90
674;DHT22;319;48.764;9.174;2023-10-31T14:53:40;16.40;99.90
674;DHT22;319;48.764;9.174;2023-10-31T14:56:07;16.30;99.90
674;DHT22;319;48.764;9.174;2023-10-31T14:58:34;16.30;99.90
674;DHT22;319;48.764;9.174;2023-10-31T15:01:02;16.30;99.90
674;DHT22;319;48.764;9.174;2023-10-31T15:03:30;16.20;99.90
674;DHT22;319;48.764;9.174;2023-10-31T15:05:57;16.20;99.90
674;DHT22;319;48.764;9.174;2023-10-31T15:08:24;16.10;99.90
674;DHT22;319;48.764;9.174;2023-10-31T15:10:52;16.00;99.90
674;DHT22;319;48.764;9.174;2023-10-31T15:13:20;15.90;99.90
674;DHT22;319;48.764;9.174;2023-10-31T15:15:48;15.90;99.90
674;DHT22;319;48.764;9.174;2023-10-31T15:18:16;15.80;99.90
674;DHT22;319;48.764;9.174;2023-10-31T15:20:43;15.80;99.90
674;DHT22;319;48.764;9.174;2023-10-31T15:23:09;15.80;99.90
674;DHT22;319;48.764;9.174;2023-10-31T15:25:40;15.70;99.90
674;DHT22;319;48.764;9.174;2023-10-31T15:28:06;15.70;99.90
674;DHT22;319;48.764;9.174;2023-10-31T15:30:33;15.70;99.90
674;DHT22;319;48.764;9.174;2023-10-31T15:33:00;15.60;99.90
674;DHT22;319;48.764;9.174;2023-10-31T15:35:28;15.50;99.90
674;DHT22;319;48.764;9.174;2023-10-31T15:37:55;15.50;99.90
674;DHT22;319;48.764;9.174;2023-10-31T15:40:22;15.30;99.90
674;DHT22;319;48.764;9.174;2023-10-31T15:42:48;15.30;99.90
674;DHT22;319;48.764;9.174;2023-10-31T15:45:15;15.20;99.90
674;DHT22;319;48.764;9.174;2023-10-31T15:47:42;15.00;99.90
674;DHT22;319;48.764;9.174;2023-10-31T15:50:08;15.00;99.90
674;DHT22;319;48.764;9.174;2023-10-31T15:52:37;14.90;99.90
674;DHT22;319;48.764;9.174;2023-10-31T15:55:05;14.90;99.90
674;DHT22;319;48.764;9.174;2023-10-31T15:57:32;14.90;99.90
674;DHT22;319;48.764;9.174;2023-10-31T16:00:00;14.80;99.90
674;DHT22;319;48.764;9.174;2023-10-31T16:02:26;14.70;99.90
674;DHT22;319;48.764;9.174;2023-10-31T16:04:53;14.80;99.90
674;DHT22;319;48.764;9.174;2023-10-31T16:07:20;14.80;99.90
674;DHT22;319;48.764;9.174;2023-10-31T16:09:48;14.80;99.90
674;DHT22;319;48.764;9.174;2023-10-31T16:12:15;14.70;99.90
674;DHT22;319;48.764;9.174;2023-10-31T16:14:43;14.70;99.90
674;DHT22;319;48.764;9.174;2023-10-31T16:17:10;14.70;99.90
674;DHT22;319;48.764;9.174;2023-10-31T16:19:37;14.70;99.90
674;DHT22;319;48.764;9.174;2023-10-31T16:22:04;14.60;99.90
674;DHT22;319;48.764;9.174;2023-10-31T16:24:32;14.60;99.90
674;DHT22;319;48.764;9.174;2023-10-31T16:27:00;14.60;99.90
674;DHT22;319;48.764;9.174;2023-10-31T16:29:26;14.50;99.90
674;DHT22;319;48.764;9.174;2023-10-31T16:31:53;14.50;99.90
674;DHT22;319;48.764;9.174;2023-10-31T16:34:20;14.40;99.90
674;DHT22;319;48.764;9.174;2023-10-31T16:36:48;14.40;99.90
674;DHT22;319;48.764;9.174;2023-10-31T16:39:15;14.30;99.90